American Lake, Washington
Current Conditions -  °F | °C
As of 9:58 PM on Tuesday 27 Jan 2015 (Local Time) from KGRF Reporting Station
Overcast Overcast  
Wind Chill: 45°   Ceiling: 1800
Heat Index: 48°   Visibility: 10mi
Dew Point: 48°   Wind: 7mph
Humidity: 99%   Direction: 200°SSW
Pressure: 30.24"   Gusts: NA
Location:  47.1451°N, 122.578°W
Report Text: KGRF 280558Z AUTO 20006KT 10SM OVC018 09/09 A3024 RMK AO2 SLP245 60001 T00890087 10117 20089 52025 $
Loading
Personal Weather Stations






























Interactive Weather Map New forecast layout! Learn more

10-Day Weather Forecast

Advertisements
Track Severe Weather on mobile